Time;durP1;ratioP1;P1;durP2;ratioP2;P2;SDS_P1;SDS_P2;PMS_P1;PMS_P2;Temp;Humidity;BMP_temperature;BMP_pressure;BME280_temperature;BME280_humidity;BME280_pressure;Samples;Min_cycle;Max_cycle;Signal;HPM_P1;HPM_P2
2020/09/28 00:00:20;;;;;;;4.3;2.65;;;;;;;4.03;98.79688;94361.74;;;;
2020/09/28 00:01:20;;;;;;;4.3;2.65;;;;;;;4.03;98.79688;94361.74;;;;
2020/09/28 00:02:21;;;;;;;4.3;2.65;;;;;;;4.03;98.79688;94361.74;;;;
2020/09/28 00:03:21;;;;;;;4.3;2.65;;;;;;;4.03;98.79688;94361.74;;;;
2020/09/28 00:04:22;;;;;;;4.3;2.65;;;;;;;4.03;98.79688;94361.74;;;;
2020/09/28 00:05:22;;;;;;;4.3;2.65;;;;;;;4.03;98.79688;94361.74;;;;
2020/09/28 00:06:23;;;;;;;4.3;2.65;;;;;;;4.03;98.79688;94361.74;;;;
2020/09/28 00:07:23;;;;;;;4.3;2.65;;;;;;;4.03;98.79688;94361.74;;;;
2020/09/28 00:08:24;;;;;;;4.3;2.65;;;;;;;4.03;98.79688;94361.74;;;;
2020/09/28 00:09:25;;;;;;;4.3;2.65;;;;;;;4.03;98.79688;94361.74;;;;
2020/09/28 00:10:25;;;;;;;4.3;2.65;;;;;;;4.03;98.79688;94361.74;;;;
2020/09/28 00:11:26;;;;;;;3.25;2.5;;;;;;;3.92;99.08496;94356.73;;;;
2020/09/28 00:12:26;;;;;;;3.25;2.5;;;;;;;3.92;99.08496;94356.73;;;;
2020/09/28 00:13:27;;;;;;;3.25;2.5;;;;;;;3.92;99.08496;94356.73;;;;
2020/09/28 00:14:27;;;;;;;3.25;2.5;;;;;;;3.92;99.08496;94356.73;;;;
2020/09/28 00:15:28;;;;;;;3.25;2.5;;;;;;;3.92;99.08496;94356.73;;;;
2020/09/28 00:16:29;;;;;;;3.25;2.5;;;;;;;3.92;99.08496;94356.73;;;;
2020/09/28 00:17:29;;;;;;;3.25;2.5;;;;;;;3.92;99.08496;94356.73;;;;
2020/09/28 00:18:30;;;;;;;3.25;2.5;;;;;;;3.92;99.08496;94356.73;;;;
2020/09/28 00:19:30;;;;;;;3.25;2.5;;;;;;;3.92;99.08496;94356.73;;;;
2020/09/28 00:20:31;;;;;;;3.25;2.5;;;;;;;3.92;99.08496;94356.73;;;;
2020/09/28 00:21:31;;;;;;;3.8;2.7;;;;;;;3.89;99.16211;94342.04;;;;
2020/09/28 00:22:32;;;;;;;3.8;2.7;;;;;;;3.89;99.16211;94342.04;;;;
2020/09/28 00:23:35;;;;;;;3.8;2.7;;;;;;;3.89;99.16211;94342.04;;;;
2020/09/28 00:24:36;;;;;;;3.8;2.7;;;;;;;3.89;99.16211;94342.04;;;;
2020/09/28 00:25:36;;;;;;;3.8;2.7;;;;;;;3.89;99.16211;94342.04;;;;
2020/09/28 00:26:37;;;;;;;3.8;2.7;;;;;;;3.89;99.16211;94342.04;;;;
2020/09/28 00:27:37;;;;;;;3.8;2.7;;;;;;;3.89;99.16211;94342.04;;;;
2020/09/28 00:28:38;;;;;;;3.8;2.7;;;;;;;3.89;99.16211;94342.04;;;;
2020/09/28 00:29:39;;;;;;;3.8;2.7;;;;;;;3.89;99.16211;94342.04;;;;
2020/09/28 00:30:39;;;;;;;3.8;2.7;;;;;;;3.89;99.16211;94342.04;;;;
2020/09/28 00:31:40;;;;;;;3.8;2.7;;;;;;;3.89;99.16211;94342.04;;;;
2020/09/28 00:32:40;;;;;;;2.65;2.45;;;;;;;3.78;99.30566;94332.89;;;;
2020/09/28 00:33:41;;;;;;;2.65;2.45;;;;;;;3.78;99.30566;94332.89;;;;
2020/09/28 00:34:41;;;;;;;2.65;2.45;;;;;;;3.78;99.30566;94332.89;;;;
2020/09/28 00:35:42;;;;;;;2.65;2.45;;;;;;;3.78;99.30566;94332.89;;;;
2020/09/28 00:36:42;;;;;;;2.65;2.45;;;;;;;3.78;99.30566;94332.89;;;;
2020/09/28 00:37:43;;;;;;;2.65;2.45;;;;;;;3.78;99.30566;94332.89;;;;
2020/09/28 00:38:43;;;;;;;2.65;2.45;;;;;;;3.78;99.30566;94332.89;;;;
2020/09/28 00:39:44;;;;;;;2.65;2.45;;;;;;;3.78;99.30566;94332.89;;;;
2020/09/28 00:40:44;;;;;;;2.65;2.45;;;;;;;3.78;99.30566;94332.89;;;;
2020/09/28 00:41:44;;;;;;;2.65;2.45;;;;;;;3.78;99.30566;94332.89;;;;
2020/09/28 00:42:45;;;;;;;4.750001;3.1;;;;;;;3.77;99.73242;94338.36;;;;
2020/09/28 00:43:45;;;;;;;4.750001;3.1;;;;;;;3.77;99.73242;94338.36;;;;
2020/09/28 00:44:46;;;;;;;4.750001;3.1;;;;;;;3.77;99.73242;94338.36;;;;
2020/09/28 00:45:46;;;;;;;4.750001;3.1;;;;;;;3.77;99.73242;94338.36;;;;
2020/09/28 00:46:49;;;;;;;4.750001;3.1;;;;;;;3.77;99.73242;94338.36;;;;
2020/09/28 00:47:50;;;;;;;4.750001;3.1;;;;;;;3.77;99.73242;94338.36;;;;
2020/09/28 00:48:51;;;;;;;4.750001;3.1;;;;;;;3.77;99.73242;94338.36;;;;
2020/09/28 00:49:51;;;;;;;4.750001;3.1;;;;;;;3.77;99.73242;94338.36;;;;
2020/09/28 00:50:52;;;;;;;4.750001;3.1;;;;;;;3.77;99.73242;94338.36;;;;
2020/09/28 00:51:53;;;;;;;4.750001;3.1;;;;;;;3.77;99.73242;94338.36;;;;
2020/09/28 00:52:54;;;;;;;4.750001;3.1;;;;;;;3.77;99.73242;94338.36;;;;
2020/09/28 00:53:54;;;;;;;3.45;3.15;;;;;;;3.72;99.96191;94348.88;;;;
2020/09/28 00:54:55;;;;;;;3.45;3.15;;;;;;;3.72;99.96191;94348.88;;;;
2020/09/28 00:55:56;;;;;;;3.45;3.15;;;;;;;3.72;99.96191;94348.88;;;;
2020/09/28 00:56:57;;;;;;;3.45;3.15;;;;;;;3.72;99.96191;94348.88;;;;
2020/09/28 00:57:57;;;;;;;3.45;3.15;;;;;;;3.72;99.96191;94348.88;;;;
2020/09/28 00:58:59;;;;;;;3.45;3.15;;;;;;;3.72;99.96191;94348.88;;;;
2020/09/28 01:00:01;;;;;;;3.45;3.15;;;;;;;3.72;99.96191;94348.88;;;;
2020/09/28 01:01:02;;;;;;;3.45;3.15;;;;;;;3.72;99.96191;94348.88;;;;
2020/09/28 01:02:03;;;;;;;3.45;3.15;;;;;;;3.72;99.96191;94348.88;;;;
2020/09/28 01:03:03;;;;;;;3.45;3.15;;;;;;;3.72;99.96191;94348.88;;;;
2020/09/28 01:04:04;;;;;;;4.650001;3.2;;;;;;;3.73;100;94370.93;;;;
2020/09/28 01:05:04;;;;;;;4.650001;3.2;;;;;;;3.73;100;94370.93;;;;
2020/09/28 01:06:05;;;;;;;4.650001;3.2;;;;;;;3.73;100;94370.93;;;;
2020/09/28 01:07:06;;;;;;;4.650001;3.2;;;;;;;3.73;100;94370.93;;;;
2020/09/28 01:08:06;;;;;;;4.650001;3.2;;;;;;;3.73;100;94370.93;;;;
2020/09/28 01:09:08;;;;;;;4.650001;3.2;;;;;;;3.73;100;94370.93;;;;
2020/09/28 01:10:08;;;;;;;4.650001;3.2;;;;;;;3.73;100;94370.93;;;;
2020/09/28 01:11:09;;;;;;;4.650001;3.2;;;;;;;3.73;100;94370.93;;;;
2020/09/28 01:12:10;;;;;;;4.650001;3.2;;;;;;;3.73;100;94370.93;;;;
2020/09/28 01:13:11;;;;;;;4.650001;3.2;;;;;;;3.73;100;94370.93;;;;
2020/09/28 01:14:11;;;;;;;4.650001;3.2;;;;;;;3.73;100;94370.93;;;;
2020/09/28 01:15:12;;;;;;;4.3;3.1;;;;;;;3.62;100;94377.87;;;;
2020/09/28 01:16:12;;;;;;;4.3;3.1;;;;;;;3.62;100;94377.87;;;;
2020/09/28 01:17:13;;;;;;;4.3;3.1;;;;;;;3.62;100;94377.87;;;;
2020/09/28 01:18:13;;;;;;;4.3;3.1;;;;;;;3.62;100;94377.87;;;;
2020/09/28 01:19:14;;;;;;;4.3;3.1;;;;;;;3.62;100;94377.87;;;;
2020/09/28 01:20:14;;;;;;;4.3;3.1;;;;;;;3.62;100;94377.87;;;;
2020/09/28 01:21:15;;;;;;;4.3;3.1;;;;;;;3.62;100;94377.87;;;;
2020/09/28 01:22:15;;;;;;;4.3;3.1;;;;;;;3.62;100;94377.87;;;;
2020/09/28 01:23:16;;;;;;;4.3;3.1;;;;;;;3.62;100;94377.87;;;;
2020/09/28 01:24:17;;;;;;;4.3;3.1;;;;;;;3.62;100;94377.87;;;;
2020/09/28 01:25:18;;;;;;;3.4;3.1;;;;;;;3.62;100;94384.14;;;;
2020/09/28 01:26:18;;;;;;;3.4;3.1;;;;;;;3.62;100;94384.14;;;;
2020/09/28 01:27:19;;;;;;;3.4;3.1;;;;;;;3.62;100;94384.14;;;;
2020/09/28 01:28:19;;;;;;;3.4;3.1;;;;;;;3.62;100;94384.14;;;;
2020/09/28 01:29:20;;;;;;;3.4;3.1;;;;;;;3.62;100;94384.14;;;;
2020/09/28 01:30:20;;;;;;;3.4;3.1;;;;;;;3.62;100;94384.14;;;;
2020/09/28 01:31:21;;;;;;;3.4;3.1;;;;;;;3.62;100;94384.14;;;;
2020/09/28 01:32:21;;;;;;;3.4;3.1;;;;;;;3.62;100;94384.14;;;;
2020/09/28 01:33:22;;;;;;;3.4;3.1;;;;;;;3.62;100;94384.14;;;;
2020/09/28 01:34:22;;;;;;;3.4;3.1;;;;;;;3.62;100;94384.14;;;;
2020/09/28 01:35:23;;;;;;;3.4;3.1;;;;;;;3.62;100;94384.14;;;;
2020/09/28 01:36:23;;;;;;;4.199999;3.3;;;;;;;3.61;100;94391.44;;;;
2020/09/28 01:37:24;;;;;;;4.199999;3.3;;;;;;;3.61;100;94391.44;;;;
2020/09/28 01:38:24;;;;;;;4.199999;3.3;;;;;;;3.61;100;94391.44;;;;
2020/09/28 01:39:25;;;;;;;4.199999;3.3;;;;;;;3.61;100;94391.44;;;;
2020/09/28 01:40:26;;;;;;;4.199999;3.3;;;;;;;3.61;100;94391.44;;;;
2020/09/28 01:41:26;;;;;;;4.199999;3.3;;;;;;;3.61;100;94391.44;;;;
2020/09/28 01:42:27;;;;;;;4.199999;3.3;;;;;;;3.61;100;94391.44;;;;
2020/09/28 01:43:27;;;;;;;4.199999;3.3;;;;;;;3.61;100;94391.44;;;;
2020/09/28 01:44:28;;;;;;;4.199999;3.3;;;;;;;3.61;100;94391.44;;;;
2020/09/28 01:45:29;;;;;;;4.199999;3.3;;;;;;;3.61;100;94391.44;;;;
2020/09/28 01:46:29;;;;;;;4.199999;3.3;;;;;;;3.61;100;94391.44;;;;
2020/09/28 01:47:30;;;;;;;5.6;3.5;;;;;;;3.71;100;94400.61;;;;
2020/09/28 01:48:30;;;;;;;5.6;3.5;;;;;;;3.71;100;94400.61;;;;
2020/09/28 01:49:31;;;;;;;5.6;3.5;;;;;;;3.71;100;94400.61;;;;
2020/09/28 01:50:31;;;;;;;5.6;3.5;;;;;;;3.71;100;94400.61;;;;
2020/09/28 01:51:32;;;;;;;5.6;3.5;;;;;;;3.71;100;94400.61;;;;
2020/09/28 01:52:32;;;;;;;5.6;3.5;;;;;;;3.71;100;94400.61;;;;
2020/09/28 01:53:33;;;;;;;5.6;3.5;;;;;;;3.71;100;94400.61;;;;
2020/09/28 01:54:33;;;;;;;5.6;3.5;;;;;;;3.71;100;94400.61;;;;
2020/09/28 01:55:34;;;;;;;5.6;3.5;;;;;;;3.71;100;94400.61;;;;
2020/09/28 01:56:34;;;;;;;5.6;3.5;;;;;;;3.71;100;94400.61;;;;
2020/09/28 01:57:36;;;;;;;3.8;3.25;;;;;;;3.77;100;94389.17;;;;
2020/09/28 01:58:37;;;;;;;3.8;3.25;;;;;;;3.77;100;94389.17;;;;
2020/09/28 01:59:37;;;;;;;3.8;3.25;;;;;;;3.77;100;94389.17;;;;
2020/09/28 02:00:38;;;;;;;3.8;3.25;;;;;;;3.77;100;94389.17;;;;
2020/09/28 02:01:38;;;;;;;3.8;3.25;;;;;;;3.77;100;94389.17;;;;
2020/09/28 02:02:38;;;;;;;3.8;3.25;;;;;;;3.77;100;94389.17;;;;
2020/09/28 02:03:39;;;;;;;3.8;3.25;;;;;;;3.77;100;94389.17;;;;
2020/09/28 02:04:39;;;;;;;3.8;3.25;;;;;;;3.77;100;94389.17;;;;
2020/09/28 02:05:40;;;;;;;3.8;3.25;;;;;;;3.77;100;94389.17;;;;
2020/09/28 02:06:41;;;;;;;3.8;3.25;;;;;;;3.77;100;94389.17;;;;
2020/09/28 02:07:41;;;;;;;3.8;3.25;;;;;;;3.77;100;94389.17;;;;
2020/09/28 02:08:42;;;;;;;4.5;3.6;;;;;;;3.89;100;94381.17;;;;
2020/09/28 02:09:42;;;;;;;4.5;3.6;;;;;;;3.89;100;94381.17;;;;
2020/09/28 02:10:43;;;;;;;4.5;3.6;;;;;;;3.89;100;94381.17;;;;
2020/09/28 02:11:43;;;;;;;4.5;3.6;;;;;;;3.89;100;94381.17;;;;
2020/09/28 02:12:44;;;;;;;4.5;3.6;;;;;;;3.89;100;94381.17;;;;
2020/09/28 02:13:44;;;;;;;4.5;3.6;;;;;;;3.89;100;94381.17;;;;
2020/09/28 02:14:45;;;;;;;4.5;3.6;;;;;;;3.89;100;94381.17;;;;
2020/09/28 02:15:46;;;;;;;4.5;3.6;;;;;;;3.89;100;94381.17;;;;
2020/09/28 02:16:46;;;;;;;4.5;3.6;;;;;;;3.89;100;94381.17;;;;
2020/09/28 02:17:47;;;;;;;4.5;3.6;;;;;;;3.89;100;94381.17;;;;
2020/09/28 02:18:47;;;;;;;5.400001;4.3;;;;;;;3.99;100;94385.53;;;;
2020/09/28 02:19:48;;;;;;;5.400001;4.3;;;;;;;3.99;100;94385.53;;;;
2020/09/28 02:20:48;;;;;;;5.400001;4.3;;;;;;;3.99;100;94385.53;;;;
2020/09/28 02:21:48;;;;;;;5.400001;4.3;;;;;;;3.99;100;94385.53;;;;
2020/09/28 02:22:49;;;;;;;5.400001;4.3;;;;;;;3.99;100;94385.53;;;;
2020/09/28 02:23:49;;;;;;;5.400001;4.3;;;;;;;3.99;100;94385.53;;;;
2020/09/28 02:24:50;;;;;;;5.400001;4.3;;;;;;;3.99;100;94385.53;;;;
2020/09/28 02:25:50;;;;;;;5.400001;4.3;;;;;;;3.99;100;94385.53;;;;
2020/09/28 02:26:51;;;;;;;5.400001;4.3;;;;;;;3.99;100;94385.53;;;;
2020/09/28 02:27:51;;;;;;;5.400001;4.3;;;;;;;3.99;100;94385.53;;;;
2020/09/28 02:28:52;;;;;;;5.400001;4.3;;;;;;;3.99;100;94385.53;;;;
2020/09/28 02:29:52;;;;;;;4.75;4.249999;;;;;;;4.18;100;94386.28;;;;
2020/09/28 02:30:53;;;;;;;4.75;4.249999;;;;;;;4.18;100;94386.28;;;;
2020/09/28 02:31:53;;;;;;;4.75;4.249999;;;;;;;4.18;100;94386.28;;;;
2020/09/28 02:32:54;;;;;;;4.75;4.249999;;;;;;;4.18;100;94386.28;;;;
2020/09/28 02:33:54;;;;;;;4.75;4.249999;;;;;;;4.18;100;94386.28;;;;
2020/09/28 02:34:55;;;;;;;4.75;4.249999;;;;;;;4.18;100;94386.28;;;;
2020/09/28 02:35:55;;;;;;;4.75;4.249999;;;;;;;4.18;100;94386.28;;;;
2020/09/28 02:36:56;;;;;;;4.75;4.249999;;;;;;;4.18;100;94386.28;;;;
2020/09/28 02:37:56;;;;;;;4.75;4.249999;;;;;;;4.18;100;94386.28;;;;
2020/09/28 02:38:57;;;;;;;4.75;4.249999;;;;;;;4.18;100;94386.28;;;;
2020/09/28 02:39:57;;;;;;;5.3;4.5;;;;;;;4.34;100;94377.8;;;;
2020/09/28 02:40:58;;;;;;;5.3;4.5;;;;;;;4.34;100;94377.8;;;;
2020/09/28 02:41:58;;;;;;;5.3;4.5;;;;;;;4.34;100;94377.8;;;;
2020/09/28 02:42:59;;;;;;;5.3;4.5;;;;;;;4.34;100;94377.8;;;;
2020/09/28 02:43:59;;;;;;;5.3;4.5;;;;;;;4.34;100;94377.8;;;;
2020/09/28 02:45:00;;;;;;;5.3;4.5;;;;;;;4.34;100;94377.8;;;;
2020/09/28 02:46:00;;;;;;;5.3;4.5;;;;;;;4.34;100;94377.8;;;;
2020/09/28 02:47:01;;;;;;;5.3;4.5;;;;;;;4.34;100;94377.8;;;;
2020/09/28 02:48:01;;;;;;;5.3;4.5;;;;;;;4.34;100;94377.8;;;;
2020/09/28 02:49:02;;;;;;;5.3;4.5;;;;;;;4.34;100;94377.8;;;;
2020/09/28 02:50:02;;;;;;;5.3;4.5;;;;;;;4.34;100;94377.8;;;;
2020/09/28 02:51:03;;;;;;;6.599999;5.599999;;;;;;;4.59;100;94365.63;;;;
2020/09/28 02:52:04;;;;;;;6.599999;5.599999;;;;;;;4.59;100;94365.63;;;;
2020/09/28 02:53:04;;;;;;;6.599999;5.599999;;;;;;;4.59;100;94365.63;;;;
2020/09/28 02:54:05;;;;;;;6.599999;5.599999;;;;;;;4.59;100;94365.63;;;;
2020/09/28 02:55:05;;;;;;;6.599999;5.599999;;;;;;;4.59;100;94365.63;;;;
2020/09/28 02:56:06;;;;;;;6.599999;5.599999;;;;;;;4.59;100;94365.63;;;;
2020/09/28 02:57:06;;;;;;;6.599999;5.599999;;;;;;;4.59;100;94365.63;;;;
2020/09/28 02:58:07;;;;;;;6.599999;5.599999;;;;;;;4.59;100;94365.63;;;;
2020/09/28 02:59:07;;;;;;;6.599999;5.599999;;;;;;;4.59;100;94365.63;;;;
2020/09/28 03:00:08;;;;;;;6.599999;5.599999;;;;;;;4.59;100;94365.63;;;;
2020/09/28 03:01:08;;;;;;;6.599999;5.599999;;;;;;;4.59;100;94365.63;;;;
2020/09/28 03:02:09;;;;;;;7.950001;5.799999;;;;;;;4.77;100;94358.03;;;;
2020/09/28 03:03:09;;;;;;;7.950001;5.799999;;;;;;;4.77;100;94358.03;;;;
2020/09/28 03:04:09;;;;;;;7.950001;5.799999;;;;;;;4.77;100;94358.03;;;;
2020/09/28 03:05:10;;;;;;;7.950001;5.799999;;;;;;;4.77;100;94358.03;;;;
2020/09/28 03:06:11;;;;;;;7.950001;5.799999;;;;;;;4.77;100;94358.03;;;;
2020/09/28 03:07:11;;;;;;;7.950001;5.799999;;;;;;;4.77;100;94358.03;;;;
2020/09/28 03:08:12;;;;;;;7.950001;5.799999;;;;;;;4.77;100;94358.03;;;;
2020/09/28 03:09:12;;;;;;;7.950001;5.799999;;;;;;;4.77;100;94358.03;;;;
2020/09/28 03:10:13;;;;;;;7.950001;5.799999;;;;;;;4.77;100;94358.03;;;;
2020/09/28 03:11:13;;;;;;;7.950001;5.799999;;;;;;;4.77;100;94358.03;;;;
2020/09/28 03:12:14;;;;;;;7.95;6.55;;;;;;;4.98;100;94350.08;;;;
2020/09/28 03:13:14;;;;;;;7.95;6.55;;;;;;;4.98;100;94350.08;;;;
2020/09/28 03:14:14;;;;;;;7.95;6.55;;;;;;;4.98;100;94350.08;;;;
2020/09/28 03:15:15;;;;;;;7.95;6.55;;;;;;;4.98;100;94350.08;;;;
2020/09/28 03:16:16;;;;;;;7.95;6.55;;;;;;;4.98;100;94350.08;;;;
2020/09/28 03:17:16;;;;;;;7.95;6.55;;;;;;;4.98;100;94350.08;;;;
2020/09/28 03:18:17;;;;;;;7.95;6.55;;;;;;;4.98;100;94350.08;;;;
2020/09/28 03:19:17;;;;;;;7.95;6.55;;;;;;;4.98;100;94350.08;;;;
2020/09/28 03:20:18;;;;;;;7.95;6.55;;;;;;;4.98;100;94350.08;;;;
2020/09/28 03:21:18;;;;;;;7.95;6.55;;;;;;;4.98;100;94350.08;;;;
2020/09/28 03:22:19;;;;;;;7.95;6.55;;;;;;;4.98;100;94350.08;;;;
2020/09/28 03:23:19;;;;;;;7.85;6.95;;;;;;;5.11;100;94344.03;;;;
2020/09/28 03:24:21;;;;;;;7.85;6.95;;;;;;;5.11;100;94344.03;;;;
2020/09/28 03:25:21;;;;;;;7.85;6.95;;;;;;;5.11;100;94344.03;;;;
2020/09/28 03:26:22;;;;;;;7.85;6.95;;;;;;;5.11;100;94344.03;;;;
2020/09/28 03:27:22;;;;;;;7.85;6.95;;;;;;;5.11;100;94344.03;;;;
2020/09/28 03:28:23;;;;;;;7.85;6.95;;;;;;;5.11;100;94344.03;;;;
2020/09/28 03:29:23;;;;;;;7.85;6.95;;;;;;;5.11;100;94344.03;;;;
2020/09/28 03:30:23;;;;;;;7.85;6.95;;;;;;;5.11;100;94344.03;;;;
2020/09/28 03:31:24;;;;;;;7.85;6.95;;;;;;;5.11;100;94344.03;;;;
2020/09/28 03:32:25;;;;;;;7.85;6.95;;;;;;;5.11;100;94344.03;;;;
2020/09/28 03:33:25;;;;;;;8;7.050001;;;;;;;5.29;100;94316.83;;;;
2020/09/28 03:34:26;;;;;;;8;7.050001;;;;;;;5.29;100;94316.83;;;;
2020/09/28 03:35:26;;;;;;;8;7.050001;;;;;;;5.29;100;94316.83;;;;
2020/09/28 03:36:27;;;;;;;8;7.050001;;;;;;;5.29;100;94316.83;;;;
2020/09/28 03:37:27;;;;;;;8;7.050001;;;;;;;5.29;100;94316.83;;;;
2020/09/28 03:38:28;;;;;;;8;7.050001;;;;;;;5.29;100;94316.83;;;;
2020/09/28 03:39:28;;;;;;;8;7.050001;;;;;;;5.29;100;94316.83;;;;
2020/09/28 03:40:29;;;;;;;8;7.050001;;;;;;;5.29;100;94316.83;;;;
2020/09/28 03:41:29;;;;;;;8;7.050001;;;;;;;5.29;100;94316.83;;;;
2020/09/28 03:42:30;;;;;;;8;7.050001;;;;;;;5.29;100;94316.83;;;;
2020/09/28 03:43:30;;;;;;;8;7.050001;;;;;;;5.29;100;94316.83;;;;
2020/09/28 03:44:31;;;;;;;8.1;7.25;;;;;;;5.43;100;94317.07;;;;
2020/09/28 03:45:32;;;;;;;8.1;7.25;;;;;;;5.43;100;94317.07;;;;
2020/09/28 03:46:33;;;;;;;8.1;7.25;;;;;;;5.43;100;94317.07;;;;
2020/09/28 03:47:34;;;;;;;8.1;7.25;;;;;;;5.43;100;94317.07;;;;
2020/09/28 03:48:38;;;;;;;8.1;7.25;;;;;;;5.43;100;94317.07;;;;
2020/09/28 03:49:41;;;;;;;8.1;7.25;;;;;;;5.43;100;94317.07;;;;
2020/09/28 03:50:42;;;;;;;8.1;7.25;;;;;;;5.43;100;94317.07;;;;
2020/09/28 03:51:42;;;;;;;8.1;7.25;;;;;;;5.43;100;94317.07;;;;
2020/09/28 03:52:43;;;;;;;8.1;7.25;;;;;;;5.43;100;94317.07;;;;
2020/09/28 03:53:43;;;;;;;8.1;7.25;;;;;;;5.43;100;94317.07;;;;
2020/09/28 03:54:45;;;;;;;8.35;7.05;;;;;;;5.6;100;94327.39;;;;
2020/09/28 03:55:46;;;;;;;8.35;7.05;;;;;;;5.6;100;94327.39;;;;
2020/09/28 03:56:47;;;;;;;8.35;7.05;;;;;;;5.6;100;94327.39;;;;
2020/09/28 03:57:47;;;;;;;8.35;7.05;;;;;;;5.6;100;94327.39;;;;
2020/09/28 03:58:48;;;;;;;8.35;7.05;;;;;;;5.6;100;94327.39;;;;
2020/09/28 03:59:54;;;;;;;8.35;7.05;;;;;;;5.6;100;94327.39;;;;
2020/09/28 04:00:55;;;;;;;8.35;7.05;;;;;;;5.6;100;94327.39;;;;
2020/09/28 04:01:56;;;;;;;8.35;7.05;;;;;;;5.6;100;94327.39;;;;
2020/09/28 04:02:57;;;;;;;8.35;7.05;;;;;;;5.6;100;94327.39;;;;
2020/09/28 04:03:59;;;;;;;8.35;7.05;;;;;;;5.6;100;94327.39;;;;
2020/09/28 04:05:16;;;;;;;8.35;7.05;;;;;;;5.6;100;94327.39;;;;
2020/09/28 04:06:18;;;;;;;8.200002;6.600001;;;;;;;5.68;100;94332.44;;;;
2020/09/28 04:07:18;;;;;;;8.200002;6.600001;;;;;;;5.68;100;94332.44;;;;
2020/09/28 04:08:20;;;;;;;8.200002;6.600001;;;;;;;5.68;100;94332.44;;;;
2020/09/28 04:09:20;;;;;;;8.200002;6.600001;;;;;;;5.68;100;94332.44;;;;
2020/09/28 04:10:21;;;;;;;8.200002;6.600001;;;;;;;5.68;100;94332.44;;;;
2020/09/28 04:11:22;;;;;;;8.200002;6.600001;;;;;;;5.68;100;94332.44;;;;
2020/09/28 04:12:23;;;;;;;8.200002;6.600001;;;;;;;5.68;100;94332.44;;;;
2020/09/28 04:13:24;;;;;;;8.200002;6.600001;;;;;;;5.68;100;94332.44;;;;
2020/09/28 04:14:24;;;;;;;8.200002;6.600001;;;;;;;5.68;100;94332.44;;;;
2020/09/28 04:15:26;;;;;;;8.200002;6.600001;;;;;;;5.68;100;94332.44;;;;
2020/09/28 04:16:31;;;;;;;7.299999;6.150001;;;;;;;5.82;100;94350.76;;;;
2020/09/28 04:17:31;;;;;;;7.299999;6.150001;;;;;;;5.82;100;94350.76;;;;
2020/09/28 04:18:50;;;;;;;7.299999;6.150001;;;;;;;5.82;100;94350.76;;;;
2020/09/28 04:20:05;;;;;;;7.299999;6.150001;;;;;;;5.82;100;94350.76;;;;
2020/09/28 04:21:06;;;;;;;7.299999;6.150001;;;;;;;5.82;100;94350.76;;;;
2020/09/28 04:22:08;;;;;;;7.299999;6.150001;;;;;;;5.82;100;94350.76;;;;
2020/09/28 04:23:08;;;;;;;7.299999;6.150001;;;;;;;5.82;100;94350.76;;;;
2020/09/28 04:24:09;;;;;;;7.299999;6.150001;;;;;;;5.82;100;94350.76;;;;
2020/09/28 04:25:11;;;;;;;7.299999;6.150001;;;;;;;5.82;100;94350.76;;;;
2020/09/28 04:26:12;;;;;;;7.299999;6.150001;;;;;;;5.82;100;94350.76;;;;
2020/09/28 04:27:30;;;;;;;7.2;6.149999;;;;;;;5.88;100;94363.79;;;;
2020/09/28 04:28:31;;;;;;;7.2;6.149999;;;;;;;5.88;100;94363.79;;;;
2020/09/28 04:29:31;;;;;;;7.2;6.149999;;;;;;;5.88;100;94363.79;;;;
2020/09/28 04:30:34;;;;;;;7.2;6.149999;;;;;;;5.88;100;94363.79;;;;
2020/09/28 04:31:35;;;;;;;7.2;6.149999;;;;;;;5.88;100;94363.79;;;;
2020/09/28 04:32:37;;;;;;;7.2;6.149999;;;;;;;5.88;100;94363.79;;;;
2020/09/28 04:33:41;;;;;;;7.2;6.149999;;;;;;;5.88;100;94363.79;;;;
2020/09/28 04:34:42;;;;;;;7.2;6.149999;;;;;;;5.88;100;94363.79;;;;
2020/09/28 04:35:46;;;;;;;7.2;6.149999;;;;;;;5.88;100;94363.79;;;;
2020/09/28 04:36:47;;;;;;;7.2;6.149999;;;;;;;5.88;100;94363.79;;;;
2020/09/28 04:37:48;;;;;;;7.050001;6.249999;;;;;;;6;100;94369.98;;;;
2020/09/28 04:38:51;;;;;;;7.050001;6.249999;;;;;;;6;100;94369.98;;;;
2020/09/28 04:39:55;;;;;;;7.050001;6.249999;;;;;;;6;100;94369.98;;;;
2020/09/28 04:41:03;;;;;;;7.050001;6.249999;;;;;;;6;100;94369.98;;;;
2020/09/28 04:42:09;;;;;;;7.050001;6.249999;;;;;;;6;100;94369.98;;;;
2020/09/28 04:43:13;;;;;;;7.050001;6.249999;;;;;;;6;100;94369.98;;;;
2020/09/28 04:44:13;;;;;;;7.050001;6.249999;;;;;;;6;100;94369.98;;;;
2020/09/28 04:45:18;;;;;;;7.050001;6.249999;;;;;;;6;100;94369.98;;;;
2020/09/28 04:46:21;;;;;;;7.050001;6.249999;;;;;;;6;100;94369.98;;;;
2020/09/28 04:47:29;;;;;;;7.050001;6.249999;;;;;;;6;100;94369.98;;;;
2020/09/28 04:48:30;;;;;;;6.900001;5.7;;;;;;;6.02;100;94383.45;;;;
2020/09/28 04:49:30;;;;;;;6.900001;5.7;;;;;;;6.02;100;94383.45;;;;
2020/09/28 04:50:32;;;;;;;6.900001;5.7;;;;;;;6.02;100;94383.45;;;;
2020/09/28 04:51:35;;;;;;;6.900001;5.7;;;;;;;6.02;100;94383.45;;;;
2020/09/28 04:52:37;;;;;;;6.900001;5.7;;;;;;;6.02;100;94383.45;;;;
2020/09/28 04:53:38;;;;;;;6.900001;5.7;;;;;;;6.02;100;94383.45;;;;
2020/09/28 04:54:38;;;;;;;6.900001;5.7;;;;;;;6.02;100;94383.45;;;;
2020/09/28 04:55:39;;;;;;;6.900001;5.7;;;;;;;6.02;100;94383.45;;;;
2020/09/28 04:56:39;;;;;;;6.900001;5.7;;;;;;;6.02;100;94383.45;;;;
2020/09/28 04:57:40;;;;;;;6.900001;5.7;;;;;;;6.02;100;94383.45;;;;
2020/09/28 04:58:40;;;;;;;7.5;6.45;;;;;;;6.08;100;94399.52;;;;
2020/09/28 04:59:41;;;;;;;7.5;6.45;;;;;;;6.08;100;94399.52;;;;
2020/09/28 05:00:42;;;;;;;7.5;6.45;;;;;;;6.08;100;94399.52;;;;
2020/09/28 05:01:44;;;;;;;7.5;6.45;;;;;;;6.08;100;94399.52;;;;
2020/09/28 05:03:06;;;;;;;7.5;6.45;;;;;;;6.08;100;94399.52;;;;
2020/09/28 05:04:06;;;;;;;7.5;6.45;;;;;;;6.08;100;94399.52;;;;
2020/09/28 05:05:07;;;;;;;7.5;6.45;;;;;;;6.08;100;94399.52;;;;
2020/09/28 05:06:07;;;;;;;7.5;6.45;;;;;;;6.08;100;94399.52;;;;
2020/09/28 05:07:17;;;;;;;7.5;6.45;;;;;;;6.08;100;94399.52;;;;
2020/09/28 05:08:34;;;;;;;7.5;6.45;;;;;;;6.08;100;94399.52;;;;
2020/09/28 05:09:35;;;;;;;7.75;6.45;;;;;;;6.07;100;94398.32;;;;
2020/09/28 05:10:35;;;;;;;7.75;6.45;;;;;;;6.07;100;94398.32;;;;
2020/09/28 05:11:36;;;;;;;7.75;6.45;;;;;;;6.07;100;94398.32;;;;
2020/09/28 05:12:36;;;;;;;7.75;6.45;;;;;;;6.07;100;94398.32;;;;
2020/09/28 05:13:37;;;;;;;7.75;6.45;;;;;;;6.07;100;94398.32;;;;
2020/09/28 05:14:39;;;;;;;7.75;6.45;;;;;;;6.07;100;94398.32;;;;
2020/09/28 05:15:39;;;;;;;7.75;6.45;;;;;;;6.07;100;94398.32;;;;
2020/09/28 05:16:40;;;;;;;7.75;6.45;;;;;;;6.07;100;94398.32;;;;
2020/09/28 05:17:40;;;;;;;7.75;6.45;;;;;;;6.07;100;94398.32;;;;
2020/09/28 05:18:41;;;;;;;7.75;6.45;;;;;;;6.07;100;94398.32;;;;
2020/09/28 05:19:43;;;;;;;7.75;6.45;;;;;;;6.07;100;94398.32;;;;
2020/09/28 05:20:43;;;;;;;8;6.15;;;;;;;6.11;100;94421.45;;;;
2020/09/28 05:21:44;;;;;;;8;6.15;;;;;;;6.11;100;94421.45;;;;
2020/09/28 05:22:44;;;;;;;8;6.15;;;;;;;6.11;100;94421.45;;;;
2020/09/28 05:23:45;;;;;;;8;6.15;;;;;;;6.11;100;94421.45;;;;
2020/09/28 05:24:53;;;;;;;8;6.15;;;;;;;6.11;100;94421.45;;;;
2020/09/28 05:25:54;;;;;;;8;6.15;;;;;;;6.11;100;94421.45;;;;
2020/09/28 05:27:00;;;;;;;8;6.15;;;;;;;6.11;100;94421.45;;;;
2020/09/28 05:28:01;;;;;;;8;6.15;;;;;;;6.11;100;94421.45;;;;
2020/09/28 05:29:03;;;;;;;8;6.15;;;;;;;6.11;100;94421.45;;;;
2020/09/28 05:30:04;;;;;;;8;6.15;;;;;;;6.11;100;94421.45;;;;
2020/09/28 05:31:05;;;;;;;8.300001;6.05;;;;;;;6.07;100;94434.48;;;;
2020/09/28 05:32:05;;;;;;;8.300001;6.05;;;;;;;6.07;100;94434.48;;;;
2020/09/28 05:33:06;;;;;;;8.300001;6.05;;;;;;;6.07;100;94434.48;;;;
2020/09/28 05:34:08;;;;;;;8.300001;6.05;;;;;;;6.07;100;94434.48;;;;
2020/09/28 05:35:08;;;;;;;8.300001;6.05;;;;;;;6.07;100;94434.48;;;;
2020/09/28 05:36:09;;;;;;;8.300001;6.05;;;;;;;6.07;100;94434.48;;;;
2020/09/28 05:37:12;;;;;;;8.300001;6.05;;;;;;;6.07;100;94434.48;;;;
2020/09/28 05:38:14;;;;;;;8.300001;6.05;;;;;;;6.07;100;94434.48;;;;
2020/09/28 05:39:15;;;;;;;8.300001;6.05;;;;;;;6.07;100;94434.48;;;;
2020/09/28 05:40:15;;;;;;;8.300001;6.05;;;;;;;6.07;100;94434.48;;;;
2020/09/28 05:41:16;;;;;;;8.300001;6.05;;;;;;;6.07;100;94434.48;;;;
2020/09/28 05:42:17;;;;;;;8.049999;6.650001;;;;;;;6.11;100;94444.22;;;;
2020/09/28 05:43:20;;;;;;;8.049999;6.650001;;;;;;;6.11;100;94444.22;;;;
2020/09/28 05:44:27;;;;;;;8.049999;6.650001;;;;;;;6.11;100;94444.22;;;;
2020/09/28 05:45:28;;;;;;;8.049999;6.650001;;;;;;;6.11;100;94444.22;;;;
2020/09/28 05:46:28;;;;;;;8.049999;6.650001;;;;;;;6.11;100;94444.22;;;;
2020/09/28 05:47:30;;;;;;;8.049999;6.650001;;;;;;;6.11;100;94444.22;;;;
2020/09/28 05:48:30;;;;;;;8.049999;6.650001;;;;;;;6.11;100;94444.22;;;;
2020/09/28 05:49:32;;;;;;;8.049999;6.650001;;;;;;;6.11;100;94444.22;;;;
2020/09/28 05:50:44;;;;;;;8.049999;6.650001;;;;;;;6.11;100;94444.22;;;;
2020/09/28 05:51:45;;;;;;;8.049999;6.650001;;;;;;;6.11;100;94444.22;;;;
2020/09/28 05:52:49;;;;;;;8.049999;7.2;;;;;;;6.16;100;94443.94;;;;
2020/09/28 05:53:49;;;;;;;8.049999;7.2;;;;;;;6.16;100;94443.94;;;;
2020/09/28 05:54:56;;;;;;;8.049999;7.2;;;;;;;6.16;100;94443.94;;;;
2020/09/28 05:55:59;;;;;;;8.049999;7.2;;;;;;;6.16;100;94443.94;;;;
2020/09/28 05:57:00;;;;;;;8.049999;7.2;;;;;;;6.16;100;94443.94;;;;
2020/09/28 05:58:00;;;;;;;8.049999;7.2;;;;;;;6.16;100;94443.94;;;;
2020/09/28 05:59:01;;;;;;;8.049999;7.2;;;;;;;6.16;100;94443.94;;;;
2020/09/28 06:00:03;;;;;;;8.049999;7.2;;;;;;;6.16;100;94443.94;;;;
2020/09/28 06:01:04;;;;;;;8.049999;7.2;;;;;;;6.16;100;94443.94;;;;
2020/09/28 06:02:07;;;;;;;8.049999;7.2;;;;;;;6.16;100;94443.94;;;;
2020/09/28 06:03:08;;;;;;;8.25;7.05;;;;;;;6.41;100;94458.9;;;;
2020/09/28 06:04:12;;;;;;;8.25;7.05;;;;;;;6.41;100;94458.9;;;;
2020/09/28 06:05:17;;;;;;;8.25;7.05;;;;;;;6.41;100;94458.9;;;;